Terminal Aerodrome Forecast
Issued by NWS Twin Cities, MN

Home | Current Version | Previous Version | Text Only | Print | Product List | Glossary Off
Versions: 1 2 3 4 5 6 7 8 9 10 11 12 13 14 15 16 17 18 19 20 21 22 23 24 25 26 27 28 29 30 31 32 33

000
FTUS43 KMPX 271100
TAFMSP
TAF
KMSP 271120Z 2712/2818 03003KT P6SM BKN120
     FM271500 11003KT P6SM SCT100 BKN250
     FM280700 12004KT P6SM OVC100
     FM281200 11004KT P6SM VCSH SCT060 OVC080
      TEMPO 2814/2816 5SM -TSRA SCT030CB OVC050=

USA.gov is the U.S. government's official web portal to all federal, state and local government web resources and services.